sensor_id;sensor_type;location;lat;lon;timestamp;pressure;altitude;pressure_sealevel;temperature;humidity
66524;BME280;53350;52.210;5.160;2023-02-26T00:00:09;102010.69;;;5.08;56.03
66524;BME280;53350;52.210;5.160;2023-02-26T00:02:39;102013.16;;;5.05;56.11
66524;BME280;53350;52.210;5.160;2023-02-26T00:05:08;102004.75;;;5.08;56.34
66524;BME280;53350;52.210;5.160;2023-02-26T00:07:35;102011.47;;;5.04;55.60
66524;BME280;53350;52.210;5.160;2023-02-26T00:10:01;102015.72;;;5.05;55.48
66524;BME280;53350;52.210;5.160;2023-02-26T00:12:28;102027.00;;;5.12;54.80
66524;BME280;53350;52.210;5.160;2023-02-26T00:14:55;102027.03;;;5.13;54.17
66524;BME280;53350;52.210;5.160;2023-02-26T00:17:30;102031.19;;;5.10;53.75
66524;BME280;53350;52.210;5.160;2023-02-26T00:19:59;102037.91;;;5.06;53.93
66524;BME280;53350;52.210;5.160;2023-02-26T00:22:27;102042.91;;;5.03;53.54
66524;BME280;53350;52.210;5.160;2023-02-26T00:24:54;102051.44;;;5.03;53.40
66524;BME280;53350;52.210;5.160;2023-02-26T00:27:20;102053.94;;;5.02;52.97
66524;BME280;53350;52.210;5.160;2023-02-26T00:29:47;102060.84;;;5.04;52.63
66524;BME280;53350;52.210;5.160;2023-02-26T00:32:14;102064.06;;;4.99;52.50
66524;BME280;53350;52.210;5.160;2023-02-26T00:34:42;102060.44;;;4.92;53.06
66524;BME280;53350;52.210;5.160;2023-02-26T00:37:24;102055.03;;;4.81;52.68
66524;BME280;53350;52.210;5.160;2023-02-26T00:40:02;102066.41;;;4.91;52.48
66524;BME280;53350;52.210;5.160;2023-02-26T00:42:33;102079.03;;;4.88;52.90
66524;BME280;53350;52.210;5.160;2023-02-26T00:45:00;102083.16;;;4.83;53.07
66524;BME280;53350;52.210;5.160;2023-02-26T00:47:32;102075.59;;;4.86;51.52
66524;BME280;53350;52.210;5.160;2023-02-26T00:50:12;102070.13;;;4.74;52.46
66524;BME280;53350;52.210;5.160;2023-02-26T00:52:46;102075.00;;;4.67;52.36
66524;BME280;53350;52.210;5.160;2023-02-26T00:55:17;102086.19;;;4.71;52.22
66524;BME280;53350;52.210;5.160;2023-02-26T00:57:43;102087.84;;;4.70;51.94
66524;BME280;53350;52.210;5.160;2023-02-26T01:00:11;102094.19;;;4.56;52.38
66524;BME280;53350;52.210;5.160;2023-02-26T01:02:39;102090.84;;;4.57;52.39
66524;BME280;53350;52.210;5.160;2023-02-26T01:05:08;102088.09;;;4.51;52.69
66524;BME280;53350;52.210;5.160;2023-02-26T01:07:39;102091.59;;;4.55;52.77
66524;BME280;53350;52.210;5.160;2023-02-26T01:10:08;102104.41;;;4.56;52.52
66524;BME280;53350;52.210;5.160;2023-02-26T01:12:37;102094.09;;;4.53;52.46
66524;BME280;53350;52.210;5.160;2023-02-26T01:15:05;102094.00;;;4.50;52.64
66524;BME280;53350;52.210;5.160;2023-02-26T01:17:35;102099.75;;;4.44;52.53
66524;BME280;53350;52.210;5.160;2023-02-26T01:20:08;102119.28;;;4.42;52.29
66524;BME280;53350;52.210;5.160;2023-02-26T01:22:39;102108.69;;;4.31;52.43
66524;BME280;53350;52.210;5.160;2023-02-26T01:25:10;102106.91;;;4.29;52.35
66524;BME280;53350;52.210;5.160;2023-02-26T01:27:39;102109.47;;;4.29;52.14
66524;BME280;53350;52.210;5.160;2023-02-26T01:30:06;102117.00;;;4.26;52.42
66524;BME280;53350;52.210;5.160;2023-02-26T01:32:41;102113.44;;;4.21;52.37
66524;BME280;53350;52.210;5.160;2023-02-26T01:35:15;102119.44;;;4.23;52.31
66524;BME280;53350;52.210;5.160;2023-02-26T01:37:49;102125.47;;;4.25;52.20
66524;BME280;53350;52.210;5.160;2023-02-26T01:40:35;102127.97;;;4.23;52.25
66524;BME280;53350;52.210;5.160;2023-02-26T01:43:13;102130.59;;;4.25;52.37
66524;BME280;53350;52.210;5.160;2023-02-26T01:45:52;102127.13;;;4.24;52.04
66524;BME280;53350;52.210;5.160;2023-02-26T01:48:30;102134.69;;;4.21;52.03
66524;BME280;53350;52.210;5.160;2023-02-26T01:51:00;102133.56;;;4.13;52.04
66524;BME280;53350;52.210;5.160;2023-02-26T01:53:27;102135.28;;;4.14;51.43
66524;BME280;53350;52.210;5.160;2023-02-26T01:55:55;102141.81;;;4.06;51.38
66524;BME280;53350;52.210;5.160;2023-02-26T01:58:23;102143.38;;;4.02;51.66
66524;BME280;53350;52.210;5.160;2023-02-26T02:00:51;102143.38;;;4.02;51.70
66524;BME280;53350;52.210;5.160;2023-02-26T02:03:18;102146.78;;;4.03;51.21
66524;BME280;53350;52.210;5.160;2023-02-26T02:05:48;102147.69;;;4.03;51.60
66524;BME280;53350;52.210;5.160;2023-02-26T02:08:15;102141.81;;;4.06;51.25
66524;BME280;53350;52.210;5.160;2023-02-26T02:10:43;102147.50;;;3.98;51.47
66524;BME280;53350;52.210;5.160;2023-02-26T02:13:18;102160.38;;;4.02;51.55
66524;BME280;53350;52.210;5.160;2023-02-26T02:15:54;102163.63;;;3.97;51.29
66524;BME280;53350;52.210;5.160;2023-02-26T02:18:33;102162.34;;;3.86;51.38
66524;BME280;53350;52.210;5.160;2023-02-26T02:21:24;102168.31;;;3.87;51.28
66524;BME280;53350;52.210;5.160;2023-02-26T02:23:55;102168.19;;;3.83;51.09
66524;BME280;53350;52.210;5.160;2023-02-26T02:26:47;102166.44;;;3.81;51.00
66524;BME280;53350;52.210;5.160;2023-02-26T02:29:35;102163.94;;;3.82;50.87
66524;BME280;53350;52.210;5.160;2023-02-26T02:32:07;102185.88;;;3.79;50.81
66524;BME280;53350;52.210;5.160;2023-02-26T02:34:36;102173.97;;;3.79;50.46
66524;BME280;53350;52.210;5.160;2023-02-26T02:37:15;102177.84;;;3.68;50.82
66524;BME280;53350;52.210;5.160;2023-02-26T02:39:43;102180.34;;;3.67;50.73
66524;BME280;53350;52.210;5.160;2023-02-26T02:42:19;102181.13;;;3.65;50.68
66524;BME280;53350;52.210;5.160;2023-02-26T02:44:50;102183.91;;;3.72;50.24
66524;BME280;53350;52.210;5.160;2023-02-26T02:47:20;102178.69;;;3.69;50.48
66524;BME280;53350;52.210;5.160;2023-02-26T02:49:51;102182.44;;;3.56;50.17
66524;BME280;53350;52.210;5.160;2023-02-26T02:52:23;102183.41;;;3.58;50.68
66524;BME280;53350;52.210;5.160;2023-02-26T02:54:55;102195.31;;;3.59;50.49
66524;BME280;53350;52.210;5.160;2023-02-26T02:57:26;102201.91;;;3.54;50.70
66524;BME280;53350;52.210;5.160;2023-02-26T02:59:57;102199.59;;;3.60;50.64
66524;BME280;53350;52.210;5.160;2023-02-26T03:02:30;102199.59;;;3.60;50.37
66524;BME280;53350;52.210;5.160;2023-02-26T03:04:58;102206.38;;;3.59;50.33
66524;BME280;53350;52.210;5.160;2023-02-26T03:07:24;102204.63;;;3.58;50.19
66524;BME280;53350;52.210;5.160;2023-02-26T03:09:51;102200.41;;;3.59;50.29
66524;BME280;53350;52.210;5.160;2023-02-26T03:12:19;102202.09;;;3.58;49.99
66524;BME280;53350;52.210;5.160;2023-02-26T03:14:45;102204.53;;;3.55;50.18
66524;BME280;53350;52.210;5.160;2023-02-26T03:17:19;102212.56;;;3.43;50.55
66524;BME280;53350;52.210;5.160;2023-02-26T03:20:02;102215.22;;;3.46;50.65
66524;BME280;53350;52.210;5.160;2023-02-26T03:22:34;102205.94;;;3.48;50.49
66524;BME280;53350;52.210;5.160;2023-02-26T03:25:07;102212.97;;;3.54;50.20
66524;BME280;53350;52.210;5.160;2023-02-26T03:27:37;102210.38;;;3.53;50.04
66524;BME280;53350;52.210;5.160;2023-02-26T03:30:13;102218.69;;;3.48;50.38
66524;BME280;53350;52.210;5.160;2023-02-26T03:32:45;102231.38;;;3.47;50.41
66524;BME280;53350;52.210;5.160;2023-02-26T03:35:20;102230.44;;;3.45;50.87
66524;BME280;53350;52.210;5.160;2023-02-26T03:37:53;102234.66;;;3.44;50.51
66524;BME280;53350;52.210;5.160;2023-02-26T03:40:25;102229.50;;;3.43;50.58
66524;BME280;53350;52.210;5.160;2023-02-26T03:42:55;102240.59;;;3.43;50.50
66524;BME280;53350;52.210;5.160;2023-02-26T03:45:24;102241.56;;;3.47;50.38
66524;BME280;53350;52.210;5.160;2023-02-26T03:47:53;102237.97;;;3.42;50.67
66524;BME280;53350;52.210;5.160;2023-02-26T03:50:25;102230.97;;;3.36;50.24
66524;BME280;53350;52.210;5.160;2023-02-26T03:52:55;102238.94;;;3.45;50.11
66524;BME280;53350;52.210;5.160;2023-02-26T03:55:28;102244.84;;;3.44;50.25
66524;BME280;53350;52.210;5.160;2023-02-26T03:57:57;102248.34;;;3.46;50.56
66524;BME280;53350;52.210;5.160;2023-02-26T04:00:23;102256.78;;;3.45;50.24
66524;BME280;53350;52.210;5.160;2023-02-26T04:02:54;102259.88;;;3.38;50.56
66524;BME280;53350;52.210;5.160;2023-02-26T04:05:26;102244.44;;;3.34;50.53
66524;BME280;53350;52.210;5.160;2023-02-26T04:07:53;102264.00;;;3.35;50.63
66524;BME280;53350;52.210;5.160;2023-02-26T04:10:26;102264.88;;;3.35;50.70
66524;BME280;53350;52.210;5.160;2023-02-26T04:12:58;102269.00;;;3.33;50.50
66524;BME280;53350;52.210;5.160;2023-02-26T04:15:24;102267.22;;;3.30;51.09
66524;BME280;53350;52.210;5.160;2023-02-26T04:17:50;102285.56;;;3.22;50.81
66524;BME280;53350;52.210;5.160;2023-02-26T04:20:17;102288.28;;;3.26;50.91
66524;BME280;53350;52.210;5.160;2023-02-26T04:22:45;102286.53;;;3.25;50.81
66524;BME280;53350;52.210;5.160;2023-02-26T04:25:11;102287.97;;;3.19;51.02
66524;BME280;53350;52.210;5.160;2023-02-26T04:27:37;102294.84;;;3.21;50.90
66524;BME280;53350;52.210;5.160;2023-02-26T04:30:05;102292.19;;;3.18;50.84
66524;BME280;53350;52.210;5.160;2023-02-26T04:32:32;102294.00;;;3.21;50.73
66524;BME280;53350;52.210;5.160;2023-02-26T04:34:58;102298.28;;;3.22;50.90
66524;BME280;53350;52.210;5.160;2023-02-26T04:37:25;102305.97;;;3.23;50.81
66524;BME280;53350;52.210;5.160;2023-02-26T04:39:53;102301.56;;;3.19;50.75
66524;BME280;53350;52.210;5.160;2023-02-26T04:42:19;102302.41;;;3.20;50.94
66524;BME280;53350;52.210;5.160;2023-02-26T04:44:45;102311.00;;;3.22;50.81
66524;BME280;53350;52.210;5.160;2023-02-26T04:47:12;102303.38;;;3.22;51.01
66524;BME280;53350;52.210;5.160;2023-02-26T04:49:38;102305.09;;;3.23;50.74
66524;BME280;53350;52.210;5.160;2023-02-26T04:52:05;102306.84;;;3.24;50.83
66524;BME280;53350;52.210;5.160;2023-02-26T04:54:31;102309.38;;;3.24;50.84
66524;BME280;53350;52.210;5.160;2023-02-26T04:56:59;102304.22;;;3.22;50.71
66524;BME280;53350;52.210;5.160;2023-02-26T04:59:26;102306.66;;;3.19;50.44
66524;BME280;53350;52.210;5.160;2023-02-26T05:01:52;102305.78;;;3.19;50.42
66524;BME280;53350;52.210;5.160;2023-02-26T05:04:18;102318.25;;;3.12;50.73
66524;BME280;53350;52.210;5.160;2023-02-26T05:06:45;102320.72;;;3.11;50.69
66524;BME280;53350;52.210;5.160;2023-02-26T05:09:11;102320.72;;;3.11;50.51
66524;BME280;53350;52.210;5.160;2023-02-26T05:11:38;102340.03;;;3.06;50.85
66524;BME280;53350;52.210;5.160;2023-02-26T05:14:05;102333.22;;;3.05;51.09
66524;BME280;53350;52.210;5.160;2023-02-26T05:16:32;102334.91;;;3.04;50.89
66524;BME280;53350;52.210;5.160;2023-02-26T05:18:58;102345.81;;;3.02;50.96
66524;BME280;53350;52.210;5.160;2023-02-26T05:21:25;102352.66;;;3.03;51.06
66524;BME280;53350;52.210;5.160;2023-02-26T05:23:51;102351.81;;;3.04;51.25
66524;BME280;53350;52.210;5.160;2023-02-26T05:26:18;102352.66;;;3.03;51.32
66524;BME280;53350;52.210;5.160;2023-02-26T05:28:44;102358.66;;;3.05;50.98
66524;BME280;53350;52.210;5.160;2023-02-26T05:31:12;102359.41;;;3.02;51.42
66524;BME280;53350;52.210;5.160;2023-02-26T05:33:39;102359.13;;;2.96;51.23
66524;BME280;53350;52.210;5.160;2023-02-26T05:36:06;102364.41;;;3.01;51.36
66524;BME280;53350;52.210;5.160;2023-02-26T05:38:32;102366.09;;;3.00;51.48
66524;BME280;53350;52.210;5.160;2023-02-26T05:40:59;102369.38;;;2.98;51.65
66524;BME280;53350;52.210;5.160;2023-02-26T05:43:26;102373.63;;;2.97;51.49
66524;BME280;53350;52.210;5.160;2023-02-26T05:45:53;102378.72;;;2.97;51.73
66524;BME280;53350;52.210;5.160;2023-02-26T05:48:22;102386.41;;;2.99;51.86
66524;BME280;53350;52.210;5.160;2023-02-26T05:50:49;102381.38;;;3.00;51.93
66524;BME280;53350;52.210;5.160;2023-02-26T05:53:15;102383.09;;;3.01;51.85
66524;BME280;53350;52.210;5.160;2023-02-26T05:55:42;102383.94;;;3.00;51.86
66524;BME280;53350;52.210;5.160;2023-02-26T05:58:09;102393.22;;;3.00;51.86
66524;BME280;53350;52.210;5.160;2023-02-26T06:00:35;102394.09;;;3.00;52.14
66524;BME280;53350;52.210;5.160;2023-02-26T06:03:02;102401.00;;;3.03;51.91
66524;BME280;53350;52.210;5.160;2023-02-26T06:05:29;102406.97;;;3.03;51.97
66524;BME280;53350;52.210;5.160;2023-02-26T06:07:56;102404.41;;;3.03;52.09
66524;BME280;53350;52.210;5.160;2023-02-26T06:10:22;102409.63;;;3.06;52.10
66524;BME280;53350;52.210;5.160;2023-02-26T06:12:49;102415.66;;;3.08;52.05
66524;BME280;53350;52.210;5.160;2023-02-26T06:15:15;102428.44;;;3.10;52.11
66524;BME280;53350;52.210;5.160;2023-02-26T06:17:42;102434.44;;;3.10;52.43
66524;BME280;53350;52.210;5.160;2023-02-26T06:20:09;102425.91;;;3.10;52.24
66524;BME280;53350;52.210;5.160;2023-02-26T06:22:38;102435.09;;;3.06;52.23
66524;BME280;53350;52.210;5.160;2023-02-26T06:25:05;102443.47;;;3.04;52.44
66524;BME280;53350;52.210;5.160;2023-02-26T06:27:32;102441.75;;;3.03;52.58
66524;BME280;53350;52.210;5.160;2023-02-26T06:29:58;102445.09;;;3.02;52.57
66524;BME280;53350;52.210;5.160;2023-02-26T06:32:25;102456.06;;;3.01;52.47
66524;BME280;53350;52.210;5.160;2023-02-26T06:34:51;102458.19;;;2.91;52.54
66524;BME280;53350;52.210;5.160;2023-02-26T06:37:18;102470.63;;;2.85;52.83
66524;BME280;53350;52.210;5.160;2023-02-26T06:39:45;102472.16;;;2.82;52.84
66524;BME280;53350;52.210;5.160;2023-02-26T06:42:12;102470.34;;;2.79;53.09
66524;BME280;53350;52.210;5.160;2023-02-26T06:44:38;102473.63;;;2.76;53.24
66524;BME280;53350;52.210;5.160;2023-02-26T06:47:05;102474.06;;;2.68;53.48
66524;BME280;53350;52.210;5.160;2023-02-26T06:49:32;102481.13;;;2.55;54.10
66524;BME280;53350;52.210;5.160;2023-02-26T06:51:59;102481.78;;;2.51;53.78
66524;BME280;53350;52.210;5.160;2023-02-26T06:54:25;102477.63;;;2.53;54.40
66524;BME280;53350;52.210;5.160;2023-02-26T06:56:53;102485.84;;;2.48;54.56
66524;BME280;53350;52.210;5.160;2023-02-26T06:59:22;102484.13;;;2.47;54.59
66524;BME280;53350;52.210;5.160;2023-02-26T07:01:48;102497.84;;;2.50;54.50
66524;BME280;53350;52.210;5.160;2023-02-26T07:04:15;102496.19;;;2.51;54.57
66524;BME280;53350;52.210;5.160;2023-02-26T07:06:41;102503.88;;;2.52;55.08
66524;BME280;53350;52.210;5.160;2023-02-26T07:09:07;102503.81;;;2.51;54.78
66524;BME280;53350;52.210;5.160;2023-02-26T07:11:34;102508.16;;;2.53;54.99
66524;BME280;53350;52.210;5.160;2023-02-26T07:14:02;102516.69;;;2.54;54.59
66524;BME280;53350;52.210;5.160;2023-02-26T07:16:28;102516.59;;;2.52;54.96
66524;BME280;53350;52.210;5.160;2023-02-26T07:18:54;102521.38;;;2.46;55.51
66524;BME280;53350;52.210;5.160;2023-02-26T07:21:21;102527.44;;;2.48;54.73
66524;BME280;53350;52.210;5.160;2023-02-26T07:23:47;102527.66;;;2.53;54.95
66524;BME280;53350;52.210;5.160;2023-02-26T07:26:14;102534.63;;;2.57;55.08
66524;BME280;53350;52.210;5.160;2023-02-26T07:28:41;102537.31;;;2.60;55.23
66524;BME280;53350;52.210;5.160;2023-02-26T07:31:09;102529.91;;;2.65;55.33
66524;BME280;53350;52.210;5.160;2023-02-26T07:33:35;102539.34;;;2.67;54.97
66524;BME280;53350;52.210;5.160;2023-02-26T07:36:04;102535.59;;;2.77;54.66
66524;BME280;53350;52.210;5.160;2023-02-26T07:38:30;102536.97;;;2.88;54.56
66524;BME280;53350;52.210;5.160;2023-02-26T07:40:57;102542.22;;;3.11;54.00
66524;BME280;53350;52.210;5.160;2023-02-26T07:43:23;102537.50;;;3.19;53.77
66524;BME280;53350;52.210;5.160;2023-02-26T07:45:50;102550.38;;;3.41;53.30
66524;BME280;53350;52.210;5.160;2023-02-26T07:48:18;102542.72;;;3.59;52.69
66524;BME280;53350;52.210;5.160;2023-02-26T07:50:45;102552.56;;;3.71;52.21
66524;BME280;53350;52.210;5.160;2023-02-26T07:53:11;102557.72;;;3.73;51.81
66524;BME280;53350;52.210;5.160;2023-02-26T07:55:38;102546.91;;;3.78;51.95
66524;BME280;53350;52.210;5.160;2023-02-26T07:58:04;102549.84;;;3.88;51.67
66524;BME280;53350;52.210;5.160;2023-02-26T08:00:30;102557.84;;;3.95;51.04
66524;BME280;53350;52.210;5.160;2023-02-26T08:02:57;102552.88;;;3.98;51.27
66524;BME280;53350;52.210;5.160;2023-02-26T08:05:25;102556.81;;;4.11;50.46
66524;BME280;53350;52.210;5.160;2023-02-26T08:07:51;102562.97;;;4.16;50.31
66524;BME280;53350;52.210;5.160;2023-02-26T08:10:18;102561.69;;;4.26;50.01
66524;BME280;53350;52.210;5.160;2023-02-26T08:12:44;102566.78;;;4.26;49.96
66524;BME280;53350;52.210;5.160;2023-02-26T08:15:11;102568.13;;;4.18;50.05
66524;BME280;53350;52.210;5.160;2023-02-26T08:17:38;102581.59;;;4.35;49.57
66524;BME280;53350;52.210;5.160;2023-02-26T08:20:06;102584.28;;;4.38;49.81
66524;BME280;53350;52.210;5.160;2023-02-26T08:22:33;102589.69;;;4.46;49.89
66524;BME280;53350;52.210;5.160;2023-02-26T08:25:00;102597.00;;;4.58;48.78
66524;BME280;53350;52.210;5.160;2023-02-26T08:27:26;102587.78;;;4.61;48.61
66524;BME280;53350;52.210;5.160;2023-02-26T08:29:53;102600.41;;;4.58;48.97
66524;BME280;53350;52.210;5.160;2023-02-26T08:32:19;102601.03;;;4.52;48.66
66524;BME280;53350;52.210;5.160;2023-02-26T08:34:47;102599.34;;;4.53;48.89
66524;BME280;53350;52.210;5.160;2023-02-26T08:37:14;102595.06;;;4.52;48.69
66524;BME280;53350;52.210;5.160;2023-02-26T08:39:41;102619.81;;;4.55;48.68
66524;BME280;53350;52.210;5.160;2023-02-26T08:42:08;102615.25;;;4.47;48.41
66524;BME280;53350;52.210;5.160;2023-02-26T08:44:35;102621.25;;;4.48;47.55
66524;BME280;53350;52.210;5.160;2023-02-26T08:47:02;102622.38;;;4.55;47.99
66524;BME280;53350;52.210;5.160;2023-02-26T08:49:28;102636.06;;;4.57;47.71
66524;BME280;53350;52.210;5.160;2023-02-26T08:51:55;102634.63;;;4.63;47.93
66524;BME280;53350;52.210;5.160;2023-02-26T08:54:21;102623.69;;;4.66;47.73
66524;BME280;53350;52.210;5.160;2023-02-26T08:56:49;102638.00;;;4.62;48.16
66524;BME280;53350;52.210;5.160;2023-02-26T08:59:17;102640.88;;;4.70;48.32
66524;BME280;53350;52.210;5.160;2023-02-26T09:01:44;102636.84;;;4.75;48.44
66524;BME280;53350;52.210;5.160;2023-02-26T09:04:10;102649.09;;;4.84;47.91
66524;BME280;53350;52.210;5.160;2023-02-26T09:06:37;102652.16;;;4.75;46.91
66524;BME280;53350;52.210;5.160;2023-02-26T09:09:03;102656.31;;;4.52;47.36
66524;BME280;53350;52.210;5.160;2023-02-26T09:11:30;102651.81;;;4.67;47.05
66524;BME280;53350;52.210;5.160;2023-02-26T09:13:58;102644.03;;;4.64;47.57
66524;BME280;53350;52.210;5.160;2023-02-26T09:16:26;102662.22;;;4.72;47.30
66524;BME280;53350;52.210;5.160;2023-02-26T09:18:52;102654.84;;;4.78;47.57
66524;BME280;53350;52.210;5.160;2023-02-26T09:21:19;102671.25;;;4.85;46.74
66524;BME280;53350;52.210;5.160;2023-02-26T09:23:45;102662.19;;;4.92;46.94
66524;BME280;53350;52.210;5.160;2023-02-26T09:26:12;102669.97;;;4.95;46.59
66524;BME280;53350;52.210;5.160;2023-02-26T09:28:39;102668.59;;;5.03;45.99
66524;BME280;53350;52.210;5.160;2023-02-26T09:31:06;102666.66;;;4.97;46.27
66524;BME280;53350;52.210;5.160;2023-02-26T09:33:33;102678.63;;;4.98;46.66
66524;BME280;53350;52.210;5.160;2023-02-26T09:36:00;102672.13;;;5.07;46.56
66524;BME280;53350;52.210;5.160;2023-02-26T09:38:26;102685.50;;;5.01;46.97
66524;BME280;53350;52.210;5.160;2023-02-26T09:40:55;102687.22;;;5.00;46.32
66524;BME280;53350;52.210;5.160;2023-02-26T09:43:46;102694.00;;;5.00;46.97
66524;BME280;53350;52.210;5.160;2023-02-26T09:46:25;102696.88;;;5.08;46.43
66524;BME280;53350;52.210;5.160;2023-02-26T09:49:02;102689.38;;;5.12;45.80
66524;BME280;53350;52.210;5.160;2023-02-26T09:51:30;102677.91;;;5.02;46.35
66524;BME280;53350;52.210;5.160;2023-02-26T09:54:00;102692.81;;;4.92;47.04
66524;BME280;53350;52.210;5.160;2023-02-26T09:56:32;102696.44;;;4.97;46.80
66524;BME280;53350;52.210;5.160;2023-02-26T09:59:01;102689.59;;;4.96;46.77
66524;BME280;53350;52.210;5.160;2023-02-26T10:01:33;102691.75;;;5.08;46.58
66524;BME280;53350;52.210;5.160;2023-02-26T10:04:06;102701.19;;;5.09;46.64
66524;BME280;53350;52.210;5.160;2023-02-26T10:06:41;102694.44;;;5.11;46.32
66524;BME280;53350;52.210;5.160;2023-02-26T10:09:23;102698.81;;;5.13;46.08
66524;BME280;53350;52.210;5.160;2023-02-26T10:12:01;102709.38;;;5.22;46.38
66524;BME280;53350;52.210;5.160;2023-02-26T10:14:32;102710.88;;;5.17;46.50
66524;BME280;53350;52.210;5.160;2023-02-26T10:17:05;102708.63;;;5.25;46.30
66524;BME280;53350;52.210;5.160;2023-02-26T10:19:35;102724.03;;;5.27;46.14
66524;BME280;53350;52.210;5.160;2023-02-26T10:22:12;102720.84;;;5.32;46.28
66524;BME280;53350;52.210;5.160;2023-02-26T10:24:42;102711.88;;;5.42;46.44
66524;BME280;53350;52.210;5.160;2023-02-26T10:27:12;102716.16;;;5.43;46.97
66524;BME280;53350;52.210;5.160;2023-02-26T10:29:45;102720.09;;;5.57;46.79
66524;BME280;53350;52.210;5.160;2023-02-26T10:32:22;102736.56;;;5.64;46.33
66524;BME280;53350;52.210;5.160;2023-02-26T10:34:51;102727.13;;;5.63;46.42
66524;BME280;53350;52.210;5.160;2023-02-26T10:37:35;102721.13;;;5.61;46.79
66524;BME280;53350;52.210;5.160;2023-02-26T10:40:12;102719.69;;;5.68;46.82
66524;BME280;53350;52.210;5.160;2023-02-26T10:42:43;102734.28;;;5.72;46.09
66524;BME280;53350;52.210;5.160;2023-02-26T10:45:24;102721.22;;;5.64;46.40
66524;BME280;53350;52.210;5.160;2023-02-26T10:48:03;102739.63;;;5.77;46.56
66524;BME280;53350;52.210;5.160;2023-02-26T10:50:33;102740.69;;;5.83;46.23
66524;BME280;53350;52.210;5.160;2023-02-26T10:53:01;102752.91;;;5.90;45.84
66524;BME280;53350;52.210;5.160;2023-02-26T10:55:32;102740.81;;;5.86;45.66
66524;BME280;53350;52.210;5.160;2023-02-26T10:58:06;102733.72;;;5.79;46.28
66524;BME280;53350;52.210;5.160;2023-02-26T11:00:35;102774.13;;;5.88;46.12
66524;BME280;53350;52.210;5.160;2023-02-26T11:03:04;102744.47;;;5.93;45.92
66524;BME280;53350;52.210;5.160;2023-02-26T11:05:33;102758.03;;;5.90;46.09
66524;BME280;53350;52.210;5.160;2023-02-26T11:08:02;102750.19;;;5.86;46.24
66524;BME280;53350;52.210;5.160;2023-02-26T11:10:38;102746.69;;;5.84;46.96
66524;BME280;53350;52.210;5.160;2023-02-26T11:13:05;102742.63;;;5.89;46.65
66524;BME280;53350;52.210;5.160;2023-02-26T11:15:32;102757.97;;;5.89;47.10
66524;BME280;53350;52.210;5.160;2023-02-26T11:17:59;102755.34;;;5.87;47.21
66524;BME280;53350;52.210;5.160;2023-02-26T11:20:34;102761.47;;;5.91;47.64
66524;BME280;53350;52.210;5.160;2023-02-26T11:23:03;102756.03;;;6.04;46.96
66524;BME280;53350;52.210;5.160;2023-02-26T11:25:32;102758.38;;;5.98;46.74
66524;BME280;53350;52.210;5.160;2023-02-26T11:28:02;102751.34;;;5.94;46.95
66524;BME280;53350;52.210;5.160;2023-02-26T11:30:35;102748.28;;;6.03;46.36
66524;BME280;53350;52.210;5.160;2023-02-26T11:33:11;102759.22;;;5.99;46.47
66524;BME280;53350;52.210;5.160;2023-02-26T11:35:41;102766.84;;;5.97;46.41
66524;BME280;53350;52.210;5.160;2023-02-26T11:38:16;102757.38;;;5.96;46.94
66524;BME280;53350;52.210;5.160;2023-02-26T11:40:46;102745.56;;;5.98;46.51
66524;BME280;53350;52.210;5.160;2023-02-26T11:43:15;102745.69;;;6.01;46.89
66524;BME280;53350;52.210;5.160;2023-02-26T11:45:44;102753.56;;;6.07;47.26
66524;BME280;53350;52.210;5.160;2023-02-26T11:48:15;102757.09;;;6.11;46.73
66524;BME280;53350;52.210;5.160;2023-02-26T11:50:47;102762.38;;;6.14;46.22
66524;BME280;53350;52.210;5.160;2023-02-26T11:53:19;102736.78;;;6.14;46.22
66524;BME280;53350;52.210;5.160;2023-02-26T11:55:46;102758.59;;;6.04;46.15
66524;BME280;53350;52.210;5.160;2023-02-26T11:58:18;102785.41;;;6.14;45.93
66524;BME280;53350;52.210;5.160;2023-02-26T12:00:46;102737.38;;;6.07;46.49
66524;BME280;53350;52.210;5.160;2023-02-26T12:03:15;102754.22;;;6.24;45.98
66524;BME280;53350;52.210;5.160;2023-02-26T12:05:43;102768.03;;;6.30;45.95
66524;BME280;53350;52.210;5.160;2023-02-26T12:08:16;102749.69;;;6.41;45.22
66524;BME280;53350;52.210;5.160;2023-02-26T12:11:06;102743.03;;;6.47;45.49
66524;BME280;53350;52.210;5.160;2023-02-26T12:13:41;102735.22;;;6.42;45.79
66524;BME280;53350;52.210;5.160;2023-02-26T12:16:20;102749.06;;;6.73;45.15
66524;BME280;53350;52.210;5.160;2023-02-26T12:19:00;102749.38;;;6.82;45.52
66524;BME280;53350;52.210;5.160;2023-02-26T12:21:50;102747.81;;;6.86;44.87
66524;BME280;53350;52.210;5.160;2023-02-26T12:24:45;102745.34;;;6.89;45.11
66524;BME280;53350;52.210;5.160;2023-02-26T12:27:24;102743.50;;;6.85;44.72
66524;BME280;53350;52.210;5.160;2023-02-26T12:30:05;102729.06;;;6.87;44.60
66524;BME280;53350;52.210;5.160;2023-02-26T12:32:53;102752.38;;;6.94;44.56
66524;BME280;53350;52.210;5.160;2023-02-26T12:35:37;102740.41;;;6.95;45.06
66524;BME280;53350;52.210;5.160;2023-02-26T12:38:20;102747.50;;;7.02;45.02
66524;BME280;53350;52.210;5.160;2023-02-26T12:41:13;102736.53;;;7.06;44.58
66524;BME280;53350;52.210;5.160;2023-02-26T12:43:46;102745.31;;;7.13;43.79
66524;BME280;53350;52.210;5.160;2023-02-26T12:46:21;102749.28;;;7.05;43.94
66524;BME280;53350;52.210;5.160;2023-02-26T12:55:21;102740.22;;;6.89;44.53
66524;BME280;53350;52.210;5.160;2023-02-26T12:58:01;102746.34;;;6.92;44.27
66524;BME280;53350;52.210;5.160;2023-02-26T13:00:39;102740.47;;;6.96;44.21
66524;BME280;53350;52.210;5.160;2023-02-26T13:03:31;102743.72;;;6.91;44.24
66524;BME280;53350;52.210;5.160;2023-02-26T13:06:19;102731.44;;;6.82;44.08
66524;BME280;53350;52.210;5.160;2023-02-26T13:08:58;102734.38;;;6.93;43.92
66524;BME280;53350;52.210;5.160;2023-02-26T13:11:39;102728.69;;;7.02;44.28
66524;BME280;53350;52.210;5.160;2023-02-26T13:14:25;102731.50;;;7.09;44.66
66524;BME280;53350;52.210;5.160;2023-02-26T13:17:00;102737.84;;;6.95;44.69
66524;BME280;53350;52.210;5.160;2023-02-26T13:19:36;102738.28;;;7.07;44.86
66524;BME280;53350;52.210;5.160;2023-02-26T13:22:14;102714.53;;;7.13;44.26